createdAt,value
2017-10-30T00:01:26.053Z,98413.44
2017-10-30T00:03:54.364Z,98415.25
2017-10-30T00:06:22.662Z,98413.20
2017-10-30T00:08:50.931Z,98419.69
2017-10-30T00:11:19.216Z,98423.47
2017-10-30T00:13:47.560Z,98423.80
2017-10-30T00:16:15.825Z,98425.33
2017-10-30T00:18:44.081Z,98427.64
2017-10-30T00:21:12.362Z,98425.09
2017-10-30T00:23:40.608Z,98429.08
2017-10-30T00:26:09.641Z,98410.08
2017-10-30T00:28:37.906Z,98430.87
2017-10-30T00:31:06.197Z,98432.96
2017-10-30T00:33:34.457Z,98431.56
2017-10-30T00:36:02.719Z,98428.48
2017-10-30T00:38:31.774Z,98437.71
2017-10-30T00:41:00.098Z,98433.19
2017-10-30T00:43:28.361Z,98434.98
2017-10-30T00:45:57.383Z,98438.64
2017-10-30T00:48:25.640Z,98448.34
2017-10-30T00:50:53.918Z,98453.95
2017-10-30T00:53:22.202Z,98455.19
2017-10-30T00:55:50.460Z,98462.58
2017-10-30T00:58:19.493Z,98452.31
2017-10-30T01:00:47.786Z,98456.63
2017-10-30T01:03:16.052Z,98455.81
2017-10-30T01:05:44.330Z,98454.36
2017-10-30T01:08:12.603Z,98453.81
2017-10-30T01:10:40.879Z,98443.44
2017-10-30T01:13:09.158Z,98454.69
2017-10-30T01:15:37.412Z,98454.83
2017-10-30T01:18:05.694Z,98446.34
2017-10-30T01:20:33.969Z,98458.07
2017-10-30T01:23:02.244Z,98454.64
2017-10-30T01:25:30.517Z,98455.91
2017-10-30T01:27:58.775Z,98457.49
2017-10-30T01:30:27.043Z,98455.38
2017-10-30T01:32:55.315Z,98457.73
2017-10-30T01:35:24.334Z,98466.02
2017-10-30T01:37:52.624Z,98472.91
2017-10-30T01:40:20.879Z,98459.43
2017-10-30T01:42:49.144Z,98472.62
2017-10-30T01:45:17.407Z,98469.41
2017-10-30T01:47:46.437Z,98473.88
2017-10-30T01:50:14.697Z,98482.64
2017-10-30T01:52:42.958Z,98480.91
2017-10-30T01:55:11.220Z,98480.12
2017-10-30T01:57:40.307Z,98487.38
2017-10-30T02:00:08.564Z,98486.00
2017-10-30T02:02:36.847Z,98486.63
2017-10-30T02:05:05.117Z,98488.94
2017-10-30T02:07:33.372Z,98492.03
2017-10-30T02:10:01.619Z,98484.42
2017-10-30T02:12:29.865Z,98477.41
2017-10-30T02:14:58.888Z,98487.83
2017-10-30T02:17:27.152Z,98485.06
2017-10-30T02:19:55.400Z,98486.73
2017-10-30T02:22:23.663Z,98493.02
2017-10-30T02:24:51.918Z,98494.87
2017-10-30T02:27:20.172Z,98487.23
2017-10-30T02:29:48.416Z,98481.49
2017-10-30T02:32:17.446Z,98485.02
2017-10-30T02:34:45.697Z,98487.97
2017-10-30T02:37:14.718Z,98492.33
2017-10-30T02:39:42.959Z,98485.98
2017-10-30T02:42:11.976Z,98488.27
2017-10-30T02:44:40.225Z,98481.68
2017-10-30T02:47:09.249Z,98487.27
2017-10-30T02:49:37.488Z,98479.23
2017-10-30T02:52:06.508Z,98485.36
2017-10-30T02:54:34.757Z,98496.41
2017-10-30T02:57:03.777Z,98490.31
2017-10-30T02:59:32.021Z,98487.09
2017-10-30T03:02:00.273Z,98484.62
2017-10-30T03:04:28.539Z,98492.28
2017-10-30T03:06:56.781Z,98502.77
2017-10-30T03:09:25.045Z,98501.57
2017-10-30T03:11:54.069Z,98500.45
2017-10-30T03:14:22.309Z,98498.61
2017-10-30T03:16:51.324Z,98502.36
2017-10-30T03:19:19.591Z,98506.56
2017-10-30T03:21:47.836Z,98519.94
2017-10-30T03:24:16.082Z,98521.96
2017-10-30T03:26:44.335Z,98518.36
2017-10-30T03:29:12.602Z,98511.56
2017-10-30T03:31:40.866Z,98527.49
2017-10-30T03:34:09.163Z,98530.64
2017-10-30T03:36:37.422Z,98535.55
2017-10-30T03:39:05.710Z,98537.52
2017-10-30T03:41:33.993Z,98541.04
2017-10-30T03:44:02.269Z,98547.69
2017-10-30T03:46:30.529Z,98550.12
2017-10-30T03:48:58.815Z,98552.09
2017-10-30T03:51:27.079Z,98546.20
2017-10-30T03:53:55.381Z,98548.67
2017-10-30T03:56:23.658Z,98551.36
2017-10-30T03:58:51.942Z,98555.02
2017-10-30T04:01:20.200Z,98561.54
2017-10-30T04:03:48.483Z,98568.21
2017-10-30T04:06:17.500Z,98563.40
2017-10-30T04:08:45.790Z,98566.71
2017-10-30T04:11:14.812Z,98563.44
2017-10-30T04:13:43.072Z,98559.53
2017-10-30T04:16:12.113Z,98563.50
2017-10-30T04:18:40.409Z,98567.05
2017-10-30T04:21:08.676Z,98571.69
2017-10-30T04:23:36.944Z,98566.00
2017-10-30T04:26:05.193Z,98571.45
2017-10-30T04:28:33.460Z,98574.91
2017-10-30T04:31:01.753Z,98577.84
2017-10-30T04:33:30.044Z,98572.69
2017-10-30T04:35:58.319Z,98583.34
2017-10-30T04:38:26.590Z,98584.80
2017-10-30T04:40:54.869Z,98589.28
2017-10-30T04:43:23.153Z,98571.29
2017-10-30T04:45:51.442Z,98582.63
2017-10-30T04:48:19.704Z,98594.72
2017-10-30T04:50:47.981Z,98592.34
2017-10-30T04:53:16.266Z,98594.86
2017-10-30T04:55:44.517Z,98600.00
2017-10-30T04:58:12.798Z,98593.55
2017-10-30T05:00:41.077Z,98597.84
2017-10-30T05:03:09.393Z,98605.63
2017-10-30T05:05:38.429Z,98606.84
2017-10-30T05:08:06.719Z,98611.95
2017-10-30T05:10:34.997Z,98608.56
2017-10-30T05:13:03.275Z,98618.50
2017-10-30T05:15:31.557Z,98621.08
2017-10-30T05:17:59.839Z,98619.95
2017-10-30T05:20:28.112Z,98621.72
2017-10-30T05:22:56.396Z,98632.23
2017-10-30T05:25:24.674Z,98632.66
2017-10-30T05:27:52.960Z,98627.10
2017-10-30T05:30:21.260Z,98630.55
2017-10-30T05:32:50.303Z,98631.98
2017-10-30T05:35:18.579Z,98632.67
2017-10-30T05:37:46.885Z,98634.66
2017-10-30T05:40:15.154Z,98629.56
2017-10-30T05:42:43.437Z,98634.52
2017-10-30T05:45:11.726Z,98651.73
2017-10-30T05:47:40.761Z,98643.87
2017-10-30T05:50:09.045Z,98644.37
2017-10-30T05:52:37.314Z,98649.78
2017-10-30T05:55:05.597Z,98656.11
2017-10-30T05:57:33.875Z,98662.25
2017-10-30T06:00:02.162Z,98662.22
2017-10-30T06:02:30.435Z,98673.57
2017-10-30T06:04:58.708Z,98676.66
2017-10-30T06:07:26.970Z,98675.59
2017-10-30T06:09:55.237Z,98674.73
2017-10-30T06:12:23.533Z,98685.88
2017-10-30T06:14:51.829Z,98687.88
2017-10-30T06:17:20.085Z,98694.62
2017-10-30T06:19:48.380Z,98696.80
2017-10-30T06:22:16.627Z,98698.34
2017-10-30T06:24:44.915Z,98711.64
2017-10-30T06:27:13.177Z,98695.88
2017-10-30T06:29:41.458Z,98710.47
2017-10-30T06:32:09.721Z,98712.27
2017-10-30T06:34:37.986Z,98720.69
2017-10-30T06:37:06.261Z,98720.97
2017-10-30T06:39:34.542Z,98720.41
2017-10-30T06:42:02.814Z,98731.55
2017-10-30T06:44:31.076Z,98735.22
2017-10-30T06:47:00.104Z,98732.89
2017-10-30T06:49:28.372Z,98730.42
2017-10-30T06:51:56.624Z,98730.84
2017-10-30T06:54:24.888Z,98743.64
2017-10-30T06:56:53.157Z,98756.41
2017-10-30T06:59:22.192Z,98755.24
2017-10-30T07:01:50.457Z,98748.06
2017-10-30T07:04:18.734Z,98748.77
2017-10-30T07:06:46.995Z,98758.23
2017-10-30T07:09:15.268Z,98747.79
2017-10-30T07:11:44.332Z,98756.71
2017-10-30T07:14:12.619Z,98758.51
2017-10-30T07:16:40.902Z,98753.79
2017-10-30T07:19:09.956Z,98757.99
2017-10-30T07:21:38.239Z,98763.37
2017-10-30T07:24:06.528Z,98766.53
2017-10-30T07:26:34.796Z,98773.66
2017-10-30T07:29:03.066Z,98766.62
2017-10-30T07:31:31.320Z,98773.41
2017-10-30T07:33:59.588Z,98778.34
2017-10-30T07:36:27.842Z,98772.72
2017-10-30T07:38:56.117Z,98779.60
2017-10-30T07:41:25.141Z,98780.63
2017-10-30T07:43:53.409Z,98781.78
2017-10-30T07:46:21.672Z,98788.36
2017-10-30T07:48:49.948Z,98795.06
2017-10-30T07:51:18.213Z,98793.23
2017-10-30T07:53:47.263Z,98790.92
2017-10-30T07:56:15.541Z,98803.89
2017-10-30T07:58:43.816Z,98804.90
2017-10-30T08:01:12.093Z,98805.02
2017-10-30T08:03:40.385Z,98796.84
2017-10-30T08:06:08.660Z,98802.13
2017-10-30T08:08:37.725Z,98803.27
2017-10-30T08:11:06.022Z,98812.64
2017-10-30T08:13:34.423Z,98803.08
2017-10-30T08:16:03.460Z,98814.52
2017-10-30T08:18:31.756Z,98821.79
2017-10-30T08:21:00.035Z,98819.95
2017-10-30T08:23:28.312Z,98812.20
2017-10-30T08:25:56.573Z,98817.86
2017-10-30T08:28:24.827Z,98810.58
2017-10-30T08:30:53.109Z,98818.07
2017-10-30T08:33:21.439Z,98824.89
2017-10-30T08:35:49.698Z,98827.01
2017-10-30T08:38:17.980Z,98826.88
2017-10-30T08:40:46.257Z,98824.73
2017-10-30T08:43:14.521Z,98823.87
2017-10-30T08:45:42.819Z,98823.33
2017-10-30T08:48:11.104Z,98831.69
2017-10-30T08:50:40.156Z,98837.24
2017-10-30T08:53:09.207Z,98835.16
2017-10-30T08:55:38.246Z,98842.16
2017-10-30T08:58:06.511Z,98835.41
2017-10-30T09:00:34.794Z,98842.17
2017-10-30T09:03:03.066Z,98829.63
2017-10-30T09:05:31.356Z,98830.95
2017-10-30T09:07:59.638Z,98836.66
2017-10-30T09:10:27.941Z,98829.78
2017-10-30T09:12:57.007Z,98831.06
2017-10-30T09:15:25.325Z,98836.95
2017-10-30T09:17:54.379Z,98846.81
2017-10-30T09:20:22.709Z,98853.64
2017-10-30T09:22:50.981Z,98863.66
2017-10-30T09:25:19.271Z,98851.38
2017-10-30T09:27:47.562Z,98873.77
2017-10-30T09:30:15.848Z,98871.81
2017-10-30T09:32:44.129Z,98869.72
2017-10-30T09:35:12.407Z,98866.54
2017-10-30T09:37:40.644Z,98873.41
2017-10-30T09:40:08.912Z,98877.95
2017-10-30T09:42:37.187Z,98880.05
2017-10-30T09:45:05.442Z,98883.89
2017-10-30T09:47:34.471Z,98880.61
2017-10-30T09:50:02.705Z,98901.72
2017-10-30T09:52:30.938Z,98896.52
2017-10-30T09:54:59.187Z,98894.29
2017-10-30T09:57:27.429Z,98893.20
2017-10-30T09:59:55.671Z,98888.77
2017-10-30T10:02:23.920Z,98889.36
2017-10-30T10:04:52.163Z,98893.77
2017-10-30T10:07:21.175Z,98894.92
2017-10-30T10:09:49.434Z,98902.97
2017-10-30T10:12:18.438Z,98894.92
2017-10-30T10:14:46.691Z,98891.19
2017-10-30T10:17:14.934Z,98890.59
2017-10-30T10:19:43.188Z,98898.77
2017-10-30T10:22:11.424Z,98888.25
2017-10-30T10:24:40.433Z,98892.59
2017-10-30T10:27:08.671Z,98895.17
2017-10-30T10:29:36.923Z,98892.27
2017-10-30T10:32:05.165Z,98871.12
2017-10-30T10:34:33.418Z,98888.78
2017-10-30T10:37:02.417Z,98898.81
2017-10-30T10:39:31.437Z,98891.56
2017-10-30T10:41:59.672Z,98892.09
2017-10-30T10:44:28.686Z,98886.14
2017-10-30T10:46:56.921Z,98884.64
2017-10-30T10:49:25.173Z,98884.12
2017-10-30T10:51:53.419Z,98887.19
2017-10-30T10:54:21.663Z,98891.84
2017-10-30T10:56:49.901Z,98882.28
2017-10-30T10:59:18.138Z,98902.84
2017-10-30T11:01:46.377Z,98884.50
2017-10-30T11:04:14.626Z,98887.28
2017-10-30T11:06:42.876Z,98882.88
2017-10-30T11:09:11.148Z,98886.66
2017-10-30T11:11:39.390Z,98889.84
2017-10-30T11:14:07.635Z,98879.73
2017-10-30T11:16:35.887Z,98877.92
2017-10-30T11:19:04.120Z,98880.54
2017-10-30T11:21:33.132Z,98887.17
2017-10-30T11:24:02.171Z,98880.47
2017-10-30T11:26:30.456Z,98877.69
2017-10-30T11:28:58.725Z,98875.72
2017-10-30T11:31:27.007Z,98866.23
2017-10-30T11:33:55.303Z,98879.74
2017-10-30T11:36:23.591Z,98871.06
2017-10-30T11:38:51.852Z,98887.88
2017-10-30T11:41:20.118Z,98872.91
2017-10-30T11:43:49.176Z,98862.78
2017-10-30T11:46:17.482Z,98866.05
2017-10-30T11:48:46.529Z,98880.47
2017-10-30T11:51:14.834Z,98883.52
2017-10-30T11:53:43.113Z,98879.80
2017-10-30T11:56:11.380Z,98861.83
2017-10-30T11:58:39.663Z,98867.03
2017-10-30T12:01:07.940Z,98871.25
2017-10-30T12:03:36.209Z,98872.15
2017-10-30T12:06:04.493Z,98864.30
2017-10-30T12:08:32.782Z,98878.80
2017-10-30T12:11:01.061Z,98871.80
2017-10-30T12:13:29.354Z,98870.48
2017-10-30T12:15:57.660Z,98870.55
2017-10-30T12:18:26.694Z,98884.77
2017-10-30T12:20:54.976Z,98875.72
2017-10-30T12:23:23.226Z,98883.78
2017-10-30T12:25:51.483Z,98886.33
2017-10-30T12:28:19.725Z,98885.58
2017-10-30T12:30:47.972Z,98888.98
2017-10-30T12:33:16.208Z,98892.39
2017-10-30T12:35:44.465Z,98891.27
2017-10-30T12:38:13.479Z,98896.45
2017-10-30T12:40:41.728Z,98883.88
2017-10-30T12:43:09.986Z,98886.28
2017-10-30T12:45:38.247Z,98891.13
2017-10-30T12:48:06.498Z,98899.75
2017-10-30T12:50:34.771Z,98891.11
2017-10-30T12:53:03.025Z,98890.03
2017-10-30T12:55:31.362Z,98892.45
2017-10-30T12:57:59.642Z,98902.50
2017-10-30T13:00:28.044Z,98887.36
2017-10-30T13:02:57.121Z,98893.78
2017-10-30T13:05:25.409Z,98899.91
2017-10-30T13:07:54.442Z,98899.97
2017-10-30T13:10:22.729Z,98904.96
2017-10-30T13:12:50.989Z,98908.20
2017-10-30T13:15:19.260Z,98913.41
2017-10-30T13:17:47.544Z,98911.16
2017-10-30T13:20:15.838Z,98920.75
2017-10-30T13:22:44.120Z,98930.05
2017-10-30T13:25:12.404Z,98931.90
2017-10-30T13:27:40.691Z,98927.62
2017-10-30T13:30:08.994Z,98923.33
2017-10-30T13:32:38.041Z,98932.50
2017-10-30T13:35:06.305Z,98945.26
2017-10-30T13:37:34.567Z,98943.36
2017-10-30T13:40:02.843Z,98953.70
2017-10-30T13:42:31.097Z,98948.23
2017-10-30T13:45:00.117Z,98949.39
2017-10-30T13:47:28.353Z,98943.05
2017-10-30T13:49:57.374Z,98942.38
2017-10-30T13:52:25.642Z,98948.72
2017-10-30T13:54:53.886Z,98947.67
2017-10-30T13:57:22.906Z,98950.03
2017-10-30T13:59:51.169Z,98953.72
2017-10-30T14:02:20.183Z,98947.31
2017-10-30T14:04:48.721Z,98959.55
2017-10-30T14:07:17.028Z,98957.63
2017-10-30T14:09:46.097Z,98950.69
2017-10-30T14:12:14.394Z,98964.47
2017-10-30T14:14:43.473Z,98956.30
2017-10-30T14:17:12.536Z,98960.05
2017-10-30T14:19:40.780Z,98968.39
2017-10-30T14:22:09.083Z,98967.56
2017-10-30T14:24:37.365Z,98974.62
2017-10-30T14:27:06.409Z,98971.62
2017-10-30T14:29:35.480Z,98972.87
2017-10-30T14:32:04.567Z,98962.03
2017-10-30T14:34:32.880Z,98968.59
2017-10-30T14:37:01.207Z,98962.20
2017-10-30T14:39:29.502Z,98967.37
2017-10-30T14:41:57.817Z,98962.62
2017-10-30T14:44:26.131Z,98959.64
2017-10-30T14:46:54.439Z,98971.83
2017-10-30T14:49:22.735Z,98968.69
2017-10-30T14:51:51.779Z,98965.00
2017-10-30T14:54:20.057Z,98963.77
2017-10-30T14:56:49.072Z,98973.22
2017-10-30T14:59:17.316Z,98982.48
2017-10-30T15:01:45.557Z,98981.38
2017-10-30T15:04:13.807Z,98977.16
2017-10-30T15:06:42.822Z,98980.28
2017-10-30T15:09:12.879Z,98979.87
2017-10-30T15:11:41.198Z,98982.97
2017-10-30T15:14:10.250Z,98978.96
2017-10-30T15:16:38.580Z,98982.70
2017-10-30T15:19:07.632Z,98982.39
2017-10-30T15:21:35.945Z,98980.88
2017-10-30T15:24:04.956Z,98977.48
2017-10-30T15:26:33.273Z,98976.34
2017-10-30T15:29:01.563Z,98986.84
2017-10-30T15:31:29.854Z,98984.20
2017-10-30T15:33:58.109Z,98983.89
2017-10-30T15:36:27.125Z,98989.12
2017-10-30T15:38:55.519Z,98989.08
2017-10-30T15:41:24.646Z,98991.53
2017-10-30T15:43:52.940Z,98988.33
2017-10-30T15:46:21.264Z,98988.59
2017-10-30T15:48:50.336Z,98996.38
2017-10-30T15:51:18.622Z,98997.88
2017-10-30T15:53:46.946Z,99005.56
2017-10-30T15:56:15.258Z,99000.48
2017-10-30T15:58:43.546Z,99006.91
2017-10-30T16:01:11.880Z,99013.38
2017-10-30T16:03:40.250Z,99021.03
2017-10-30T16:06:09.300Z,99019.86
2017-10-30T16:08:38.387Z,99020.05
2017-10-30T16:11:06.702Z,99028.47
2017-10-30T16:13:35.044Z,99030.30
2017-10-30T16:16:03.376Z,99030.50
2017-10-30T16:18:31.662Z,99028.19
2017-10-30T16:20:59.975Z,99032.48
2017-10-30T16:23:29.039Z,99033.41
2017-10-30T16:25:57.337Z,99045.02
2017-10-30T16:28:25.634Z,99047.96
2017-10-30T16:30:54.697Z,99055.87
2017-10-30T16:33:22.971Z,99055.28
2017-10-30T16:35:51.271Z,99064.66
2017-10-30T16:38:19.547Z,99063.44
2017-10-30T16:40:47.869Z,99068.13
2017-10-30T16:43:16.170Z,99071.30
2017-10-30T16:45:44.482Z,99071.13
2017-10-30T16:48:12.739Z,99083.39
2017-10-30T16:50:41.017Z,99083.58
2017-10-30T16:53:09.267Z,99085.78
2017-10-30T16:55:37.505Z,99092.38
2017-10-30T16:58:05.768Z,99083.93
2017-10-30T17:00:34.033Z,99078.56
2017-10-30T17:03:02.292Z,99087.31
2017-10-30T17:05:30.547Z,99089.78
2017-10-30T17:07:58.823Z,99096.77
2017-10-30T17:10:27.052Z,99100.45
2017-10-30T17:12:56.083Z,99100.28
2017-10-30T17:15:24.324Z,99111.16
2017-10-30T17:17:53.335Z,99112.20
2017-10-30T17:20:21.588Z,99113.41
2017-10-30T17:22:50.606Z,99119.81
2017-10-30T17:25:18.846Z,99118.63
2017-10-30T17:27:47.855Z,99122.63
2017-10-30T17:30:16.107Z,99118.24
2017-10-30T17:32:44.357Z,99118.83
2017-10-30T17:35:12.591Z,99113.30
2017-10-30T17:37:40.866Z,99117.75
2017-10-30T17:40:09.875Z,99117.97
2017-10-30T17:42:38.159Z,99119.43
2017-10-30T17:45:07.538Z,99124.08
2017-10-30T17:47:35.791Z,99124.88
2017-10-30T17:50:04.805Z,99127.92
2017-10-30T17:52:33.062Z,99131.47
2017-10-30T17:55:02.094Z,99127.23
2017-10-30T17:57:30.371Z,99130.22
2017-10-30T17:59:58.634Z,99135.25
2017-10-30T18:02:26.890Z,99137.49
2017-10-30T18:04:55.920Z,99131.42
2017-10-30T18:07:24.212Z,99131.98
2017-10-30T18:09:52.462Z,99130.85
2017-10-30T18:12:20.724Z,99137.83
2017-10-30T18:14:48.969Z,99143.28
2017-10-30T18:17:17.223Z,99144.36
2017-10-30T18:19:45.512Z,99151.25
2017-10-30T18:22:19.223Z,99146.58
2017-10-30T18:24:48.272Z,99144.20
2017-10-30T18:27:16.556Z,99141.63
2017-10-30T18:29:44.902Z,99152.03
2017-10-30T18:32:13.231Z,99142.91
2017-10-30T18:34:41.541Z,99139.10
2017-10-30T18:37:10.620Z,99145.29
2017-10-30T18:39:39.721Z,99141.52
2017-10-30T18:42:08.863Z,99144.34
2017-10-30T18:44:37.195Z,99144.05
2017-10-30T18:47:06.270Z,99145.03
2017-10-30T18:49:34.582Z,99154.97
2017-10-30T18:52:02.890Z,99154.28
2017-10-30T18:54:31.161Z,99161.24
2017-10-30T18:56:59.436Z,99164.88
2017-10-30T18:59:27.722Z,99166.08
2017-10-30T19:01:56.066Z,99166.48
2017-10-30T19:04:24.383Z,99170.13
2017-10-30T19:06:53.479Z,99170.13
2017-10-30T19:09:21.803Z,99167.78
2017-10-30T19:11:50.863Z,99168.02
2017-10-30T19:14:19.206Z,99175.25
2017-10-30T19:16:47.536Z,99174.53
2017-10-30T19:19:15.852Z,99182.08
2017-10-30T19:21:44.187Z,99179.75
2017-10-30T19:24:12.481Z,99176.36
2017-10-30T19:26:41.658Z,99183.80
2017-10-30T19:29:09.970Z,99180.90
2017-10-30T19:31:38.264Z,99181.70
2017-10-30T19:34:06.575Z,99181.77
2017-10-30T19:36:34.904Z,99180.97
2017-10-30T19:39:03.230Z,99182.83
2017-10-30T19:41:31.551Z,99184.78
2017-10-30T19:43:59.864Z,99196.56
2017-10-30T19:46:28.178Z,99190.66
2017-10-30T19:48:57.260Z,99190.73
2017-10-30T19:51:25.579Z,99187.20
2017-10-30T19:53:54.616Z,99184.68
2017-10-30T19:56:22.928Z,99185.48
2017-10-30T19:58:52.062Z,99191.01
2017-10-30T20:01:20.422Z,99186.48
2017-10-30T20:03:48.783Z,99187.48
2017-10-30T20:06:23.348Z,99188.02
2017-10-30T20:08:57.212Z,99179.89
2017-10-30T20:11:31.660Z,99180.98
2017-10-30T20:14:00.044Z,99179.32
2017-10-30T20:16:28.287Z,99184.55
2017-10-30T20:18:57.297Z,99183.33
2017-10-30T20:21:25.548Z,99188.29
2017-10-30T20:23:54.568Z,99190.01
2017-10-30T20:26:24.107Z,99196.86
2017-10-30T20:28:53.184Z,99197.87
2017-10-30T20:31:21.523Z,99200.05
2017-10-30T20:33:49.848Z,99208.55
2017-10-30T20:36:18.100Z,99204.69
2017-10-30T20:38:46.370Z,99206.52
2017-10-30T20:41:14.726Z,99208.28
2017-10-30T20:43:43.805Z,99210.91
2017-10-30T20:46:12.106Z,99209.75
2017-10-30T20:48:41.154Z,99215.28
2017-10-30T20:51:09.428Z,99212.35
2017-10-30T20:53:37.755Z,99207.70
2017-10-30T20:56:06.059Z,99212.05
2017-10-30T20:58:34.543Z,99210.88
2017-10-30T21:01:02.827Z,99210.92
2017-10-30T21:03:31.078Z,99213.20
2017-10-30T21:05:59.336Z,99208.66
2017-10-30T21:08:28.334Z,99215.16
2017-10-30T21:10:57.345Z,99209.67
2017-10-30T21:13:25.589Z,99213.66
2017-10-30T21:15:54.751Z,99209.31
2017-10-30T21:18:22.988Z,99211.36
2017-10-30T21:20:51.222Z,99206.78
2017-10-30T21:23:21.076Z,99213.66
2017-10-30T21:25:49.315Z,99208.06
2017-10-30T21:28:17.569Z,99213.96
2017-10-30T21:30:45.823Z,99219.78
2017-10-30T21:33:14.068Z,99222.89
2017-10-30T21:35:43.078Z,99219.83
2017-10-30T21:38:19.601Z,99219.14
2017-10-30T21:40:48.634Z,99217.75
2017-10-30T21:43:16.899Z,99214.83
2017-10-30T21:45:45.924Z,99221.25
2017-10-30T21:48:14.188Z,99221.31
2017-10-30T21:50:42.445Z,99213.55
2017-10-30T21:53:11.472Z,99210.13
2017-10-30T21:55:39.778Z,99214.41
2017-10-30T21:58:08.042Z,99210.97
2017-10-30T22:00:36.303Z,99215.86
2017-10-30T22:03:04.606Z,99219.16
2017-10-30T22:05:32.866Z,99217.61
2017-10-30T22:08:01.133Z,99224.42
2017-10-30T22:10:30.166Z,99221.39
2017-10-30T22:12:58.444Z,99220.93
2017-10-30T22:15:27.471Z,99212.69
2017-10-30T22:18:10.619Z,99215.97
2017-10-30T22:20:38.890Z,99211.91
2017-10-30T22:23:07.160Z,99213.69
2017-10-30T22:25:35.424Z,99222.51
2017-10-30T22:28:03.774Z,99217.29
2017-10-30T22:30:32.055Z,99215.37
2017-10-30T22:33:00.348Z,99212.38
2017-10-30T22:35:28.627Z,99212.50
2017-10-30T22:37:56.906Z,99212.62
2017-10-30T22:40:25.215Z,99207.80
2017-10-30T22:42:53.520Z,99209.16
2017-10-30T22:45:21.774Z,99208.65
2017-10-30T22:47:50.069Z,99206.63
2017-10-30T22:50:18.328Z,99208.32
2017-10-30T22:52:46.595Z,99208.65
2017-10-30T22:55:15.632Z,99210.27
2017-10-30T22:57:44.696Z,99206.75
2017-10-30T23:00:13.761Z,99206.23
2017-10-30T23:02:42.103Z,99210.23
2017-10-30T23:05:10.400Z,99207.98
2017-10-30T23:07:38.682Z,99213.01
2017-10-30T23:10:06.957Z,99213.97
2017-10-30T23:12:35.304Z,99211.69
2017-10-30T23:15:04.356Z,99214.13
2017-10-30T23:17:32.632Z,99214.75
2017-10-30T23:20:00.932Z,99221.78
2017-10-30T23:22:29.235Z,99213.61
2017-10-30T23:24:57.521Z,99217.37
2017-10-30T23:27:25.805Z,99213.13
2017-10-30T23:29:54.085Z,99214.17
2017-10-30T23:32:22.452Z,99216.06
2017-10-30T23:34:50.834Z,99212.52
2017-10-30T23:37:19.105Z,99218.20
2017-10-30T23:39:47.390Z,99213.66
2017-10-30T23:42:15.679Z,99211.23
2017-10-30T23:44:43.985Z,99214.17
2017-10-30T23:47:12.260Z,99207.75
2017-10-30T23:49:40.611Z,99206.17
2017-10-30T23:52:08.869Z,99202.60
2017-10-30T23:54:37.160Z,99200.37
2017-10-30T23:57:05.436Z,99201.84
2017-10-30T23:59:33.708Z,99194.86
